sensor_id;sensor_type;location;lat;lon;timestamp;pressure;altitude;pressure_sealevel;temperature;humidity
60087;BME280;45960;53.630;55.972;2023-09-08T00:00:35;99182.97;;;16.71;67.34
60087;BME280;45960;53.630;55.972;2023-09-08T00:01:35;99172.19;;;16.71;67.01
60087;BME280;45960;53.630;55.972;2023-09-08T00:02:37;99170.84;;;16.67;67.07
60087;BME280;45960;53.630;55.972;2023-09-08T00:03:38;99174.53;;;16.66;67.20
60087;BME280;45960;53.630;55.972;2023-09-08T00:04:39;99174.88;;;16.63;67.00
60087;BME280;45960;53.630;55.972;2023-09-08T00:05:40;99181.28;;;16.62;67.06
60087;BME280;45960;53.630;55.972;2023-09-08T00:06:41;99182.28;;;16.61;67.10
60087;BME280;45960;53.630;55.972;2023-09-08T00:07:42;99177.75;;;16.62;67.09
60087;BME280;45960;53.630;55.972;2023-09-08T00:08:44;99181.28;;;16.62;66.88
60087;BME280;45960;53.630;55.972;2023-09-08T00:09:45;99176.22;;;16.67;66.97
60087;BME280;45960;53.630;55.972;2023-09-08T00:10:46;99186.69;;;16.70;66.95
60087;BME280;45960;53.630;55.972;2023-09-08T00:11:47;99182.13;;;16.71;66.90
60087;BME280;45960;53.630;55.972;2023-09-08T00:12:48;99154.28;;;16.54;66.79
60087;BME280;45960;53.630;55.972;2023-09-08T00:13:49;99192.91;;;16.71;66.73
60087;BME280;45960;53.630;55.972;2023-09-08T00:14:51;99191.25;;;16.70;66.76
60087;BME280;45960;53.630;55.972;2023-09-08T00:15:52;99193.09;;;16.69;66.63
60087;BME280;45960;53.630;55.972;2023-09-08T00:16:53;99189.72;;;16.67;66.59
60087;BME280;45960;53.630;55.972;2023-09-08T00:17:56;99194.44;;;16.65;66.56
60087;BME280;45960;53.630;55.972;2023-09-08T00:18:58;99194.75;;;16.62;66.76
60087;BME280;45960;53.630;55.972;2023-09-08T00:19:59;99198.47;;;16.61;66.71
60087;BME280;45960;53.630;55.972;2023-09-08T00:21:00;99195.09;;;16.59;66.90
60087;BME280;45960;53.630;55.972;2023-09-08T00:22:01;99197.09;;;16.57;66.92
60087;BME280;45960;53.630;55.972;2023-09-08T00:23:03;99193.72;;;16.55;66.99
60087;BME280;45960;53.630;55.972;2023-09-08T00:24:05;99191.34;;;16.52;66.60
60087;BME280;45960;53.630;55.972;2023-09-08T00:25:06;99187.31;;;16.48;66.73
60087;BME280;45960;53.630;55.972;2023-09-08T00:26:07;99183.09;;;16.45;66.78
60087;BME280;45960;53.630;55.972;2023-09-08T00:27:09;99183.94;;;16.46;66.73
60087;BME280;45960;53.630;55.972;2023-09-08T00:28:11;99178.53;;;16.46;66.77
60087;BME280;45960;53.630;55.972;2023-09-08T00:29:12;99185.94;;;16.44;66.90
60087;BME280;45960;53.630;55.972;2023-09-08T00:30:13;99181.56;;;16.43;66.92
60087;BME280;45960;53.630;55.972;2023-09-08T00:31:14;99171.81;;;16.42;67.13
60087;BME280;45960;53.630;55.972;2023-09-08T00:32:15;99179.19;;;16.40;67.11
60087;BME280;45960;53.630;55.972;2023-09-08T00:33:18;99163.19;;;16.30;67.25
60087;BME280;45960;53.630;55.972;2023-09-08T00:34:19;99174.47;;;16.33;67.36
60087;BME280;45960;53.630;55.972;2023-09-08T00:35:21;99166.38;;;16.25;67.51
60087;BME280;45960;53.630;55.972;2023-09-08T00:36:22;99175.47;;;16.32;67.47
60087;BME280;45960;53.630;55.972;2023-09-08T00:37:23;99174.81;;;16.30;67.64
60087;BME280;45960;53.630;55.972;2023-09-08T00:38:25;99178.16;;;16.32;67.47
60087;BME280;45960;53.630;55.972;2023-09-08T00:39:27;99151.34;;;16.23;67.32
60087;BME280;45960;53.630;55.972;2023-09-08T00:40:28;99169.09;;;16.33;67.37
60087;BME280;45960;53.630;55.972;2023-09-08T00:41:29;99174.97;;;16.37;67.29
60087;BME280;45960;53.630;55.972;2023-09-08T00:42:30;99171.59;;;16.35;67.15
60087;BME280;45960;53.630;55.972;2023-09-08T00:43:31;99174.66;;;16.40;67.30
60087;BME280;45960;53.630;55.972;2023-09-08T00:44:32;99179.19;;;16.40;67.31
60087;BME280;45960;53.630;55.972;2023-09-08T00:45:36;99173.81;;;16.40;67.30
60087;BME280;45960;53.630;55.972;2023-09-08T00:46:39;99158.63;;;16.30;67.25
60087;BME280;45960;53.630;55.972;2023-09-08T00:47:41;99171.81;;;16.42;67.43
60087;BME280;45960;53.630;55.972;2023-09-08T00:48:42;99179.56;;;16.45;67.35
60087;BME280;45960;53.630;55.972;2023-09-08T00:49:43;99177.69;;;16.45;67.39
60087;BME280;45960;53.630;55.972;2023-09-08T00:50:44;99175.50;;;16.49;67.26
60087;BME280;45960;53.630;55.972;2023-09-08T00:51:45;99176.19;;;16.51;67.33
60087;BME280;45960;53.630;55.972;2023-09-08T00:52:47;99176.03;;;16.52;67.31
60087;BME280;45960;53.630;55.972;2023-09-08T00:53:49;99181.25;;;16.54;67.42
60087;BME280;45960;53.630;55.972;2023-09-08T00:54:51;99190.03;;;16.56;67.34
60087;BME280;45960;53.630;55.972;2023-09-08T00:55:52;99180.94;;;16.57;67.36
60087;BME280;45960;53.630;55.972;2023-09-08T00:56:57;99182.63;;;16.58;67.22
60087;BME280;45960;53.630;55.972;2023-09-08T00:57:59;99184.31;;;16.59;67.21
60087;BME280;45960;53.630;55.972;2023-09-08T00:59:02;99186.66;;;16.62;67.24
60087;BME280;45960;53.630;55.972;2023-09-08T01:00:03;99189.38;;;16.62;67.08
60087;BME280;45960;53.630;55.972;2023-09-08T01:01:06;99187.50;;;16.63;67.09
60087;BME280;45960;53.630;55.972;2023-09-08T01:02:08;99192.56;;;16.66;67.17
60087;BME280;45960;53.630;55.972;2023-09-08T01:03:11;99197.81;;;16.67;67.25
60087;BME280;45960;53.630;55.972;2023-09-08T01:04:13;99194.09;;;16.68;67.03
60087;BME280;45960;53.630;55.972;2023-09-08T01:05:14;99196.63;;;16.70;67.02
60087;BME280;45960;53.630;55.972;2023-09-08T01:06:15;99194.09;;;16.68;66.90
60087;BME280;45960;53.630;55.972;2023-09-08T01:07:19;99189.72;;;16.67;66.96
60087;BME280;45960;53.630;55.972;2023-09-08T01:08:21;99192.75;;;16.64;66.70
60087;BME280;45960;53.630;55.972;2023-09-08T01:09:23;99184.66;;;16.64;66.70
60087;BME280;45960;53.630;55.972;2023-09-08T01:10:26;99189.38;;;16.62;66.65
60087;BME280;45960;53.630;55.972;2023-09-08T01:11:28;99189.38;;;16.62;66.84
60087;BME280;45960;53.630;55.972;2023-09-08T01:12:31;99191.91;;;16.64;66.47
60087;BME280;45960;53.630;55.972;2023-09-08T01:13:32;99189.38;;;16.62;66.78
60087;BME280;45960;53.630;55.972;2023-09-08T01:14:33;99192.91;;;16.63;66.67
60087;BME280;45960;53.630;55.972;2023-09-08T01:15:34;99185.16;;;16.60;66.49
60087;BME280;45960;53.630;55.972;2023-09-08T01:16:35;99185.97;;;16.60;66.60
60087;BME280;45960;53.630;55.972;2023-09-08T01:17:37;99178.91;;;16.51;66.52
60087;BME280;45960;53.630;55.972;2023-09-08T01:18:40;99192.72;;;16.56;66.56
60087;BME280;45960;53.630;55.972;2023-09-08T01:19:42;99184.97;;;16.53;66.52
60087;BME280;45960;53.630;55.972;2023-09-08T01:23:59;99188.47;;;16.45;66.56
60087;BME280;45960;53.630;55.972;2023-09-08T01:26:17;99178.03;;;16.42;66.72
60087;BME280;45960;53.630;55.972;2023-09-08T01:27:21;99176.88;;;16.45;66.68
60087;BME280;45960;53.630;55.972;2023-09-08T01:28:25;99177.19;;;16.42;66.69
60087;BME280;45960;53.630;55.972;2023-09-08T01:29:27;99180.25;;;16.47;66.54
60087;BME280;45960;53.630;55.972;2023-09-08T01:30:30;99181.91;;;16.48;66.54
60087;BME280;45960;53.630;55.972;2023-09-08T01:31:33;99182.25;;;16.45;66.72
60087;BME280;45960;53.630;55.972;2023-09-08T01:32:34;99184.25;;;16.43;66.49
60087;BME280;45960;53.630;55.972;2023-09-08T01:33:36;99175.16;;;16.44;66.91
60087;BME280;45960;53.630;55.972;2023-09-08T01:34:39;99182.25;;;16.45;66.83
60087;BME280;45960;53.630;55.972;2023-09-08T01:35:43;99173.81;;;16.40;66.91
60087;BME280;45960;53.630;55.972;2023-09-08T01:36:45;99180.25;;;16.47;66.82
60087;BME280;45960;53.630;55.972;2023-09-08T01:37:47;99179.38;;;16.46;66.67
60087;BME280;45960;53.630;55.972;2023-09-08T01:38:51;99176.53;;;16.48;66.71
60087;BME280;45960;53.630;55.972;2023-09-08T01:39:52;99169.47;;;16.47;66.58
60087;BME280;45960;53.630;55.972;2023-09-08T01:40:53;99173.84;;;16.48;66.95
60087;BME280;45960;53.630;55.972;2023-09-08T01:41:54;99175.84;;;16.46;66.85
60087;BME280;45960;53.630;55.972;2023-09-08T01:42:55;99166.09;;;16.45;66.58
60087;BME280;45960;53.630;55.972;2023-09-08T01:43:57;99174.31;;;16.43;66.48
60087;BME280;45960;53.630;55.972;2023-09-08T01:44:59;99162.53;;;16.36;66.53
60087;BME280;45960;53.630;55.972;2023-09-08T01:46:01;99178.19;;;16.41;66.44
60087;BME280;45960;53.630;55.972;2023-09-08T01:47:02;99182.91;;;16.39;66.62
60087;BME280;45960;53.630;55.972;2023-09-08T01:48:03;99177.69;;;16.37;66.46
60087;BME280;45960;53.630;55.972;2023-09-08T01:49:05;99180.38;;;16.37;66.67
60087;BME280;45960;53.630;55.972;2023-09-08T01:50:06;99177.84;;;16.36;66.79
60087;BME280;45960;53.630;55.972;2023-09-08T01:51:07;99174.47;;;16.33;66.47
60087;BME280;45960;53.630;55.972;2023-09-08T01:52:09;99164.34;;;16.27;66.33
60087;BME280;45960;53.630;55.972;2023-09-08T01:53:10;99166.53;;;16.32;66.36
60087;BME280;45960;53.630;55.972;2023-09-08T01:54:11;99178.16;;;16.32;66.36
60087;BME280;45960;53.630;55.972;2023-09-08T01:55:13;99157.25;;;16.26;66.41
60087;BME280;45960;53.630;55.972;2023-09-08T01:56:14;99176.47;;;16.31;66.46
60087;BME280;45960;53.630;55.972;2023-09-08T01:57:15;99164.03;;;16.30;66.38
60087;BME280;45960;53.630;55.972;2023-09-08T01:58:16;99163.19;;;16.30;66.18
60087;BME280;45960;53.630;55.972;2023-09-08T01:59:17;99158.63;;;16.30;66.11
60087;BME280;45960;53.630;55.972;2023-09-08T02:00:18;99166.03;;;16.28;66.16
60087;BME280;45960;53.630;55.972;2023-09-08T02:01:19;99155.91;;;16.22;66.15
60087;BME280;45960;53.630;55.972;2023-09-08T02:02:21;99169.75;;;16.27;66.22
60087;BME280;45960;53.630;55.972;2023-09-08T02:03:22;99167.19;;;16.26;66.32
60087;BME280;45960;53.630;55.972;2023-09-08T02:04:23;99170.72;;;16.26;66.36
60087;BME280;45960;53.630;55.972;2023-09-08T02:05:24;99176.13;;;16.26;66.37
60087;BME280;45960;53.630;55.972;2023-09-08T02:06:27;99179.84;;;16.25;66.47
60087;BME280;45960;53.630;55.972;2023-09-08T02:07:28;99177.13;;;16.25;66.43
60087;BME280;45960;53.630;55.972;2023-09-08T02:08:29;99178.13;;;16.24;66.38
60087;BME280;45960;53.630;55.972;2023-09-08T02:09:32;99172.09;;;16.22;66.43
60087;BME280;45960;53.630;55.972;2023-09-08T02:10:33;99176.63;;;16.22;66.35
60087;BME280;45960;53.630;55.972;2023-09-08T02:11:34;99174.94;;;16.21;66.43
60087;BME280;45960;53.630;55.972;2023-09-08T02:12:35;99174.94;;;16.21;66.48
60087;BME280;45960;53.630;55.972;2023-09-08T02:13:40;99181.16;;;16.21;66.57
60087;BME280;45960;53.630;55.972;2023-09-08T02:14:42;99177.81;;;16.19;66.49
60087;BME280;45960;53.630;55.972;2023-09-08T02:15:44;99174.41;;;16.17;66.64
60087;BME280;45960;53.630;55.972;2023-09-08T02:16:45;99172.41;;;16.19;66.77
60087;BME280;45960;53.630;55.972;2023-09-08T02:17:50;99169.03;;;16.17;66.70
60087;BME280;45960;53.630;55.972;2023-09-08T02:18:51;99163.78;;;16.16;66.84
60087;BME280;45960;53.630;55.972;2023-09-08T02:19:52;99169.34;;;16.14;66.74
60087;BME280;45960;53.630;55.972;2023-09-08T02:20:53;99174.22;;;16.10;66.91
60087;BME280;45960;53.630;55.972;2023-09-08T02:21:54;99177.06;;;16.09;67.01
60087;BME280;45960;53.630;55.972;2023-09-08T02:22:56;99176.06;;;16.10;66.94
60087;BME280;45960;53.630;55.972;2023-09-08T02:23:58;99172.38;;;16.11;66.98
60087;BME280;45960;53.630;55.972;2023-09-08T02:24:58;99174.91;;;16.13;66.83
60087;BME280;45960;53.630;55.972;2023-09-08T02:26:00;99166.31;;;16.09;66.58
60087;BME280;45960;53.630;55.972;2023-09-08T02:27:01;99178.13;;;16.16;66.49
60087;BME280;45960;53.630;55.972;2023-09-08T02:28:05;99172.75;;;16.16;66.52
60087;BME280;45960;53.630;55.972;2023-09-08T02:29:07;99163.47;;;16.10;66.48
60087;BME280;45960;53.630;55.972;2023-09-08T02:30:09;99163.97;;;16.14;66.43
60087;BME280;45960;53.630;55.972;2023-09-08T02:31:10;99167.66;;;16.13;66.57
60087;BME280;45960;53.630;55.972;2023-09-08T02:32:12;99167.66;;;16.13;66.44
60087;BME280;45960;53.630;55.972;2023-09-08T02:33:15;99163.13;;;16.14;66.69
60087;BME280;45960;53.630;55.972;2023-09-08T02:34:16;99169.34;;;16.14;66.51
60087;BME280;45960;53.630;55.972;2023-09-08T02:35:18;99164.28;;;16.11;66.50
60087;BME280;45960;53.630;55.972;2023-09-08T02:36:20;99176.75;;;16.12;66.57
60087;BME280;45960;53.630;55.972;2023-09-08T02:37:28;99181.31;;;16.11;66.69
60087;BME280;45960;53.630;55.972;2023-09-08T02:38:29;99184.84;;;16.12;66.50
60087;BME280;45960;53.630;55.972;2023-09-08T02:39:32;99182.97;;;16.13;66.46
60087;BME280;45960;53.630;55.972;2023-09-08T02:40:33;99187.53;;;16.12;66.58
60087;BME280;45960;53.630;55.972;2023-09-08T02:41:35;99191.25;;;16.11;66.37
60087;BME280;45960;53.630;55.972;2023-09-08T02:42:36;99176.91;;;16.02;66.36
60087;BME280;45960;53.630;55.972;2023-09-08T02:43:37;99196.97;;;16.08;66.21
60087;BME280;45960;53.630;55.972;2023-09-08T02:44:38;99191.91;;;16.05;66.00
60087;BME280;45960;53.630;55.972;2023-09-08T02:45:39;99199.28;;;16.03;65.93
60087;BME280;45960;53.630;55.972;2023-09-08T02:46:40;99187.78;;;15.93;66.02
60087;BME280;45960;53.630;55.972;2023-09-08T02:47:41;99204.16;;;15.99;66.04
60087;BME280;45960;53.630;55.972;2023-09-08T02:48:43;99201.63;;;15.98;65.87
60087;BME280;45960;53.630;55.972;2023-09-08T02:49:44;99205.47;;;15.95;65.83
60087;BME280;45960;53.630;55.972;2023-09-08T02:50:45;99203.78;;;15.94;65.87
60087;BME280;45960;53.630;55.972;2023-09-08T02:51:46;99201.94;;;15.95;65.98
60087;BME280;45960;53.630;55.972;2023-09-08T02:52:47;99197.56;;;15.94;65.70
60087;BME280;45960;53.630;55.972;2023-09-08T02:53:48;99204.63;;;15.95;65.91
60087;BME280;45960;53.630;55.972;2023-09-08T02:54:50;99200.91;;;15.96;65.88
60087;BME280;45960;53.630;55.972;2023-09-08T02:55:51;99207.00;;;15.98;65.69
60087;BME280;45960;53.630;55.972;2023-09-08T02:56:52;99212.91;;;16.01;65.76
60087;BME280;45960;53.630;55.972;2023-09-08T02:57:53;99208.69;;;15.99;65.55
60087;BME280;45960;53.630;55.972;2023-09-08T02:58:54;99210.06;;;16.03;65.58
60087;BME280;45960;53.630;55.972;2023-09-08T02:59:55;99213.44;;;16.05;65.61
60087;BME280;45960;53.630;55.972;2023-09-08T03:00:57;99204.66;;;16.03;65.49
60087;BME280;45960;53.630;55.972;2023-09-08T03:01:59;99205.69;;;16.10;65.44
60087;BME280;45960;53.630;55.972;2023-09-08T03:03:00;99209.09;;;16.12;65.22
60087;BME280;45960;53.630;55.972;2023-09-08T03:04:01;99209.91;;;16.13;65.10
60087;BME280;45960;53.630;55.972;2023-09-08T03:05:05;99208.41;;;16.10;65.02
60087;BME280;45960;53.630;55.972;2023-09-08T03:06:07;99209.09;;;16.12;65.16
60087;BME280;45960;53.630;55.972;2023-09-08T03:07:08;99200.97;;;16.04;65.42
60087;BME280;45960;53.630;55.972;2023-09-08T03:08:09;99208.75;;;16.15;65.23
60087;BME280;45960;53.630;55.972;2023-09-08T03:09:10;99197.97;;;16.15;65.23
60087;BME280;45960;53.630;55.972;2023-09-08T03:10:12;99201.69;;;16.14;65.43
60087;BME280;45960;53.630;55.972;2023-09-08T03:11:13;99199.00;;;16.14;65.40
60087;BME280;45960;53.630;55.972;2023-09-08T03:12:14;99203.69;;;16.12;65.31
60087;BME280;45960;53.630;55.972;2023-09-08T03:13:15;99196.97;;;16.08;65.37
60087;BME280;45960;53.630;55.972;2023-09-08T03:14:18;99203.66;;;16.04;65.67
60087;BME280;45960;53.630;55.972;2023-09-08T03:15:20;99204.66;;;16.03;65.61
60087;BME280;45960;53.630;55.972;2023-09-08T03:16:21;99204.81;;;16.01;65.97
60087;BME280;45960;53.630;55.972;2023-09-08T03:17:23;99199.63;;;16.00;65.93
60087;BME280;45960;53.630;55.972;2023-09-08T03:18:24;99195.91;;;16.01;65.99
60087;BME280;45960;53.630;55.972;2023-09-08T03:19:25;99189.16;;;15.97;65.97
60087;BME280;45960;53.630;55.972;2023-09-08T03:20:27;99201.28;;;16.01;66.18
60087;BME280;45960;53.630;55.972;2023-09-08T03:21:31;99203.97;;;16.01;65.96
60087;BME280;45960;53.630;55.972;2023-09-08T03:22:32;99207.50;;;16.01;66.08
60087;BME280;45960;53.630;55.972;2023-09-08T03:23:33;99208.06;;;16.05;66.20
60087;BME280;45960;53.630;55.972;2023-09-08T03:24:34;99206.34;;;16.04;66.10
60087;BME280;45960;53.630;55.972;2023-09-08T03:25:35;99216.28;;;16.03;66.03
60087;BME280;45960;53.630;55.972;2023-09-08T03:26:36;99207.38;;;16.03;65.77
60087;BME280;45960;53.630;55.972;2023-09-08T03:27:37;99207.00;;;15.98;65.77
60087;BME280;45960;53.630;55.972;2023-09-08T03:28:39;99212.72;;;15.95;65.98
60087;BME280;45960;53.630;55.972;2023-09-08T03:29:40;99207.66;;;15.92;66.10
60087;BME280;45960;53.630;55.972;2023-09-08T03:30:41;99217.03;;;15.87;65.95
60087;BME280;45960;53.630;55.972;2023-09-08T03:31:42;99221.06;;;15.83;66.09
60087;BME280;45960;53.630;55.972;2023-09-08T03:32:43;99217.69;;;15.81;66.19
60087;BME280;45960;53.630;55.972;2023-09-08T03:33:44;99219.69;;;15.79;66.42
60087;BME280;45960;53.630;55.972;2023-09-08T03:34:46;99214.28;;;15.79;66.22
60087;BME280;45960;53.630;55.972;2023-09-08T03:35:47;99218.19;;;15.77;66.10
60087;BME280;45960;53.630;55.972;2023-09-08T03:36:49;99214.94;;;15.73;66.31
60087;BME280;45960;53.630;55.972;2023-09-08T03:37:50;99214.28;;;15.71;66.28
60087;BME280;45960;53.630;55.972;2023-09-08T03:38:51;99215.25;;;15.70;66.37
60087;BME280;45960;53.630;55.972;2023-09-08T03:39:52;99207.88;;;15.72;66.32
60087;BME280;45960;53.630;55.972;2023-09-08T03:40:53;99215.25;;;15.70;66.47
60087;BME280;45960;53.630;55.972;2023-09-08T03:41:55;99210.72;;;15.71;66.42
60087;BME280;45960;53.630;55.972;2023-09-08T03:42:55;99204.50;;;15.70;66.32
60087;BME280;45960;53.630;55.972;2023-09-08T03:43:57;99200.13;;;15.69;66.11
60087;BME280;45960;53.630;55.972;2023-09-08T03:44:58;99204.50;;;15.70;66.07
60087;BME280;45960;53.630;55.972;2023-09-08T03:45:59;99204.50;;;15.70;66.15
60087;BME280;45960;53.630;55.972;2023-09-08T03:47:00;99213.59;;;15.69;66.07
60087;BME280;45960;53.630;55.972;2023-09-08T03:48:03;99192.66;;;15.63;66.08
60087;BME280;45960;53.630;55.972;2023-09-08T03:49:04;99206.78;;;15.65;66.21
60087;BME280;45960;53.630;55.972;2023-09-08T03:50:06;99202.41;;;15.64;66.44
60087;BME280;45960;53.630;55.972;2023-09-08T03:51:07;99201.72;;;15.62;66.75
60087;BME280;45960;53.630;55.972;2023-09-08T03:52:08;99205.41;;;15.61;66.82
60087;BME280;45960;53.630;55.972;2023-09-08T03:53:09;99209.09;;;15.60;67.07
60087;BME280;45960;53.630;55.972;2023-09-08T03:54:11;99200.34;;;15.58;67.12
60087;BME280;45960;53.630;55.972;2023-09-08T03:55:12;99206.06;;;15.55;67.49
60087;BME280;45960;53.630;55.972;2023-09-08T03:56:13;99208.19;;;15.51;67.72
60087;BME280;45960;53.630;55.972;2023-09-08T03:57:14;99203.31;;;15.47;67.93
60087;BME280;45960;53.630;55.972;2023-09-08T03:58:15;99206.31;;;15.43;67.92
60087;BME280;45960;53.630;55.972;2023-09-08T03:59:16;99211.00;;;15.41;68.16
60087;BME280;45960;53.630;55.972;2023-09-08T04:00:18;99208.47;;;15.40;68.26
60087;BME280;45960;53.630;55.972;2023-09-08T04:01:22;99216.72;;;15.38;68.32
60087;BME280;45960;53.630;55.972;2023-09-08T04:02:23;99214.00;;;15.38;68.28
60087;BME280;45960;53.630;55.972;2023-09-08T04:03:24;99211.63;;;15.35;68.14
60087;BME280;45960;53.630;55.972;2023-09-08T04:04:25;99214.34;;;15.35;68.17
60087;BME280;45960;53.630;55.972;2023-09-08T04:05:26;99213.50;;;15.35;68.13
60087;BME280;45960;53.630;55.972;2023-09-08T04:06:27;99214.47;;;15.34;68.06
60087;BME280;45960;53.630;55.972;2023-09-08T04:07:29;99219.00;;;15.33;68.11
60087;BME280;45960;53.630;55.972;2023-09-08T04:08:30;99222.41;;;15.35;68.01
60087;BME280;45960;53.630;55.972;2023-09-08T04:09:31;99217.88;;;15.36;67.89
60087;BME280;45960;53.630;55.972;2023-09-08T04:10:33;99221.38;;;15.36;67.87
60087;BME280;45960;53.630;55.972;2023-09-08T04:11:34;99219.53;;;15.37;67.81
60087;BME280;45960;53.630;55.972;2023-09-08T04:12:35;99224.09;;;15.36;67.73
60087;BME280;45960;53.630;55.972;2023-09-08T04:13:36;99225.94;;;15.36;67.64
60087;BME280;45960;53.630;55.972;2023-09-08T04:14:37;99219.84;;;15.34;67.66
60087;BME280;45960;53.630;55.972;2023-09-08T04:15:38;99227.22;;;15.32;67.59
60087;BME280;45960;53.630;55.972;2023-09-08T04:16:40;99222.47;;;15.26;67.69
60087;BME280;45960;53.630;55.972;2023-09-08T04:17:41;99222.16;;;15.29;67.59
60087;BME280;45960;53.630;55.972;2023-09-08T04:18:42;99224.84;;;15.29;67.56
60087;BME280;45960;53.630;55.972;2023-09-08T04:19:43;99223.03;;;15.29;67.36
60087;BME280;45960;53.630;55.972;2023-09-08T04:20:44;99223.69;;;15.31;67.28
60087;BME280;45960;53.630;55.972;2023-09-08T04:21:45;99221.72;;;15.33;67.34
60087;BME280;45960;53.630;55.972;2023-09-08T04:22:46;99219.84;;;15.34;67.17
60087;BME280;45960;53.630;55.972;2023-09-08T04:23:48;99213.94;;;15.30;67.15
60087;BME280;45960;53.630;55.972;2023-09-08T04:24:49;99212.47;;;15.36;67.15
60087;BME280;45960;53.630;55.972;2023-09-08T04:25:50;99211.31;;;15.38;67.09
60087;BME280;45960;53.630;55.972;2023-09-08T04:26:51;99220.94;;;15.41;67.02
60087;BME280;45960;53.630;55.972;2023-09-08T04:27:52;99218.91;;;15.43;67.02
60087;BME280;45960;53.630;55.972;2023-09-08T04:28:53;99219.47;;;15.47;66.86
60087;BME280;45960;53.630;55.972;2023-09-08T04:29:54;99224.53;;;15.50;66.86
60087;BME280;45960;53.630;55.972;2023-09-08T04:30:56;99220.81;;;15.51;66.70
60087;BME280;45960;53.630;55.972;2023-09-08T04:31:57;99221.66;;;15.51;66.70
60087;BME280;45960;53.630;55.972;2023-09-08T04:32:59;99224.22;;;15.53;66.69
60087;BME280;45960;53.630;55.972;2023-09-08T04:34:00;99224.91;;;15.55;66.58
60087;BME280;45960;53.630;55.972;2023-09-08T04:35:01;99226.44;;;15.57;66.50
60087;BME280;45960;53.630;55.972;2023-09-08T04:36:02;99222.88;;;15.57;66.44
60087;BME280;45960;53.630;55.972;2023-09-08T04:37:03;99223.06;;;15.55;66.36
60087;BME280;45960;53.630;55.972;2023-09-08T04:38:04;99222.22;;;15.55;66.29
60087;BME280;45960;53.630;55.972;2023-09-08T04:39:05;99217.66;;;15.55;66.33
60087;BME280;45960;53.630;55.972;2023-09-08T04:40:09;99217.50;;;15.57;66.14
60087;BME280;45960;53.630;55.972;2023-09-08T04:41:11;99216.50;;;15.58;66.05
60087;BME280;45960;53.630;55.972;2023-09-08T04:42:12;99213.97;;;15.56;66.05
60087;BME280;45960;53.630;55.972;2023-09-08T04:43:15;99209.41;;;15.57;66.03
60087;BME280;45960;53.630;55.972;2023-09-08T04:44:16;99218.03;;;15.60;66.04
60087;BME280;45960;53.630;55.972;2023-09-08T04:45:17;99226.63;;;15.64;66.08
60087;BME280;45960;53.630;55.972;2023-09-08T04:46:18;99237.09;;;15.67;66.01
60087;BME280;45960;53.630;55.972;2023-09-08T04:47:20;99230.03;;;15.66;65.85
60087;BME280;45960;53.630;55.972;2023-09-08T04:48:21;99230.03;;;15.66;65.71
60087;BME280;45960;53.630;55.972;2023-09-08T04:49:24;99238.81;;;15.68;65.59
60087;BME280;45960;53.630;55.972;2023-09-08T04:50:34;99236.81;;;15.70;65.52
60087;BME280;45960;53.630;55.972;2023-09-08T04:51:40;99240.19;;;15.72;65.43
60087;BME280;45960;53.630;55.972;2023-09-08T04:52:41;99240.19;;;15.72;65.36
60087;BME280;45960;53.630;55.972;2023-09-08T04:53:42;99246.59;;;15.71;65.46
60087;BME280;45960;53.630;55.972;2023-09-08T04:54:43;99243.91;;;15.71;65.36
60087;BME280;45960;53.630;55.972;2023-09-08T04:55:46;99236.47;;;15.73;65.34
60087;BME280;45960;53.630;55.972;2023-09-08T04:56:48;99236.34;;;15.75;65.15
60087;BME280;45960;53.630;55.972;2023-09-08T04:57:52;99239.88;;;15.75;65.01
60087;BME280;45960;53.630;55.972;2023-09-08T04:58:56;99232.47;;;15.77;65.22
60087;BME280;45960;53.630;55.972;2023-09-08T05:00:04;99234.47;;;15.75;65.12
60087;BME280;45960;53.630;55.972;2023-09-08T05:01:07;99232.81;;;15.74;64.80
60087;BME280;45960;53.630;55.972;2023-09-08T05:02:10;99229.63;;;15.79;64.80
60087;BME280;45960;53.630;55.972;2023-09-08T05:03:12;99218.31;;;15.75;64.87
60087;BME280;45960;53.630;55.972;2023-09-08T05:04:14;99228.13;;;15.84;64.49
60087;BME280;45960;53.630;55.972;2023-09-08T05:05:15;99225.81;;;15.89;64.38
60087;BME280;45960;53.630;55.972;2023-09-08T05:06:16;99223.50;;;15.95;64.24
60087;BME280;45960;53.630;55.972;2023-09-08T05:07:17;99222.84;;;16.01;64.04
60087;BME280;45960;53.630;55.972;2023-09-08T05:08:19;99212.75;;;16.03;63.89
60087;BME280;45960;53.630;55.972;2023-09-08T05:09:20;99227.63;;;16.15;63.96
60087;BME280;45960;53.630;55.972;2023-09-08T05:10:24;99225.44;;;16.19;63.59
60087;BME280;45960;53.630;55.972;2023-09-08T05:11:27;99220.25;;;16.25;63.39
60087;BME280;45960;53.630;55.972;2023-09-08T05:12:28;99223.31;;;16.30;63.38
60087;BME280;45960;53.630;55.972;2023-09-08T05:13:29;99222.66;;;16.37;63.11
60087;BME280;45960;53.630;55.972;2023-09-08T05:14:31;99221.31;;;16.41;63.07
60087;BME280;45960;53.630;55.972;2023-09-08T05:15:32;99235.84;;;16.48;62.82
60087;BME280;45960;53.630;55.972;2023-09-08T05:16:34;99228.13;;;16.53;62.59
60087;BME280;45960;53.630;55.972;2023-09-08T05:17:49;99238.56;;;16.56;62.51
60087;BME280;45960;53.630;55.972;2023-09-08T05:18:52;99238.25;;;16.59;62.37
60087;BME280;45960;53.630;55.972;2023-09-08T05:19:53;99238.75;;;16.63;62.25
60087;BME280;45960;53.630;55.972;2023-09-08T05:20:55;99240.28;;;16.65;62.23
60087;BME280;45960;53.630;55.972;2023-09-08T05:21:56;99238.94;;;16.69;62.13
60087;BME280;45960;53.630;55.972;2023-09-08T05:22:58;99240.63;;;16.70;62.03
60087;BME280;45960;53.630;55.972;2023-09-08T05:23:59;99243.31;;;16.70;62.11
60087;BME280;45960;53.630;55.972;2023-09-08T05:25:00;99236.75;;;16.73;62.11
60087;BME280;45960;53.630;55.972;2023-09-08T05:26:01;99233.72;;;16.76;61.88
60087;BME280;45960;53.630;55.972;2023-09-08T05:27:03;99240.69;;;16.78;61.99